createdAt,value
2022-12-31T00:01:35.842Z,100242.19
2022-12-31T00:04:03.288Z,100248.19
2022-12-31T00:06:32.563Z,100252.50
2022-12-31T00:09:01.892Z,100255.03
2022-12-31T00:11:29.967Z,100243.03
2022-12-31T00:13:57.557Z,100243.91
2022-12-31T00:16:39.894Z,100237.03
2022-12-31T00:19:09.778Z,100240.44
2022-12-31T00:21:36.947Z,100233.59
2022-12-31T00:24:04.558Z,100242.19
2022-12-31T00:26:33.057Z,100244.75
2022-12-31T00:29:01.309Z,100258.50
2022-12-31T00:31:31.553Z,100259.38
2022-12-31T00:33:58.927Z,100260.22
2022-12-31T00:36:31.974Z,100261.06
2022-12-31T00:39:00.205Z,100263.66
2022-12-31T00:41:28.203Z,100255.09
2022-12-31T00:43:55.131Z,100263.66
2022-12-31T00:46:22.219Z,100259.34
2022-12-31T00:48:49.769Z,100261.09
2022-12-31T00:51:18.532Z,100257.66
2022-12-31T00:53:45.854Z,100261.09
2022-12-31T00:56:16.780Z,100258.50
2022-12-31T00:58:43.791Z,100258.53
2022-12-31T01:01:12.850Z,100249.09
2022-12-31T01:03:39.670Z,100249.09
2022-12-31T01:06:06.973Z,100261.97
2022-12-31T01:08:34.122Z,100258.56
2022-12-31T01:11:20.603Z,100253.38
2022-12-31T01:14:01.997Z,100253.38
2022-12-31T01:16:34.780Z,100255.09
2022-12-31T01:19:04.173Z,100264.56
2022-12-31T01:21:31.359Z,100257.72
2022-12-31T01:23:59.025Z,100270.59
2022-12-31T01:26:26.353Z,100262.81
2022-12-31T01:28:52.905Z,100270.59
2022-12-31T01:31:21.299Z,100274.03
2022-12-31T01:33:48.413Z,100276.63
2022-12-31T01:36:25.514Z,100256.81
2022-12-31T01:38:54.371Z,100268.84
2022-12-31T01:41:28.176Z,100266.25
2022-12-31T01:43:56.323Z,100247.34
2022-12-31T01:46:44.746Z,100252.53
2022-12-31T01:49:33.803Z,100264.56
2022-12-31T01:52:08.862Z,100273.19
2022-12-31T01:54:39.322Z,100272.31
2022-12-31T01:57:08.596Z,100276.63
2022-12-31T01:59:35.327Z,100270.59
2022-12-31T02:02:02.502Z,100269.75
2022-12-31T02:04:29.833Z,100267.16
2022-12-31T02:07:00.405Z,100258.56
2022-12-31T02:09:27.386Z,100266.28
2022-12-31T02:11:54.448Z,100263.72
2022-12-31T02:14:25.862Z,100265.44
2022-12-31T02:17:17.611Z,100250.00
2022-12-31T02:20:09.833Z,100256.88
2022-12-31T02:23:10.939Z,100254.28
2022-12-31T02:26:14.996Z,100243.13
2022-12-31T02:29:12.580Z,100243.13
2022-12-31T02:31:48.239Z,100259.44
2022-12-31T02:34:27.607Z,100260.31
2022-12-31T02:36:57.724Z,100258.59
2022-12-31T02:39:24.627Z,100252.56
2022-12-31T02:41:51.916Z,100265.47
2022-12-31T02:44:26.918Z,100262.03
2022-12-31T02:47:10.593Z,100272.34
2022-12-31T02:49:57.816Z,100274.91
2022-12-31T02:52:35.754Z,100274.91
2022-12-31T02:55:22.680Z,100268.94
2022-12-31T02:57:55.683Z,100262.91
2022-12-31T03:00:41.518Z,100262.03
2022-12-31T03:03:09.129Z,100264.63
2022-12-31T03:05:41.028Z,100260.31
2022-12-31T03:08:08.444Z,100272.38
2022-12-31T03:10:35.440Z,100266.34
2022-12-31T03:13:03.063Z,100262.91
2022-12-31T03:15:32.126Z,100287.81
2022-12-31T03:18:03.565Z,100279.22
2022-12-31T03:21:02.958Z,100286.97
2022-12-31T03:23:41.812Z,100288.69
2022-12-31T03:26:11.058Z,100278.41
2022-12-31T03:28:39.539Z,100290.41
2022-12-31T03:31:06.954Z,100289.56
2022-12-31T03:33:38.428Z,100289.53
2022-12-31T03:36:14.500Z,100280.97
2022-12-31T03:38:41.497Z,100279.22
2022-12-31T03:41:10.800Z,100289.53
2022-12-31T03:43:37.836Z,100278.38
2022-12-31T03:46:04.497Z,100279.22
2022-12-31T03:48:31.589Z,100284.41
2022-12-31T03:50:58.612Z,100286.97
2022-12-31T03:53:25.185Z,100287.84
2022-12-31T03:55:55.025Z,100274.94
2022-12-31T03:58:21.978Z,100284.41
2022-12-31T04:00:53.108Z,100281.81
2022-12-31T04:03:20.189Z,100258.63
2022-12-31T04:05:53.419Z,100249.19
2022-12-31T04:08:20.466Z,100239.75
2022-12-31T04:10:47.075Z,100242.34
2022-12-31T04:13:13.628Z,100237.19
2022-12-31T04:15:40.670Z,100244.88
2022-12-31T04:18:07.684Z,100255.22
2022-12-31T04:20:34.235Z,100255.19
2022-12-31T04:23:01.298Z,100241.47
2022-12-31T04:25:27.837Z,100259.50
2022-12-31T04:27:54.345Z,100245.78
2022-12-31T04:30:20.919Z,100250.06
2022-12-31T04:32:47.431Z,100250.94
2022-12-31T04:35:14.032Z,100254.38
2022-12-31T04:37:41.041Z,100268.94
2022-12-31T04:40:09.277Z,100264.66
2022-12-31T04:42:36.330Z,100256.94
2022-12-31T04:45:03.059Z,100264.66
2022-12-31T04:47:30.146Z,100286.13
2022-12-31T04:49:56.703Z,100278.41
2022-12-31T04:52:23.242Z,100276.66
2022-12-31T04:54:49.770Z,100266.38
2022-12-31T04:57:16.785Z,100270.66
2022-12-31T04:59:43.329Z,100274.97
2022-12-31T05:02:10.151Z,100274.97
2022-12-31T05:04:36.839Z,100271.53
2022-12-31T05:07:03.407Z,100266.34
2022-12-31T05:09:31.226Z,100264.66
2022-12-31T05:11:58.545Z,100254.38
2022-12-31T05:14:25.799Z,100262.09
2022-12-31T05:16:52.414Z,100267.22
2022-12-31T05:19:19.131Z,100281.84
2022-12-31T05:22:05.650Z,100280.09
2022-12-31T05:24:32.530Z,100284.38
2022-12-31T05:26:59.099Z,100276.69
2022-12-31T05:29:25.708Z,100280.97
2022-12-31T05:31:52.493Z,100280.09
2022-12-31T05:34:19.200Z,100295.56
2022-12-31T05:36:46.213Z,100288.69
2022-12-31T05:39:12.751Z,100290.41
2022-12-31T05:41:39.851Z,100286.97
2022-12-31T05:44:06.418Z,100291.25
2022-12-31T05:46:34.152Z,100292.13
2022-12-31T05:49:01.721Z,100280.13
2022-12-31T05:51:28.239Z,100275.81
2022-12-31T05:53:54.771Z,100281.81
2022-12-31T05:56:21.340Z,100286.13
2022-12-31T05:58:47.874Z,100284.38
2022-12-31T06:01:14.434Z,100280.09
2022-12-31T06:03:44.718Z,100280.09
2022-12-31T06:06:11.759Z,100275.81
2022-12-31T06:08:38.973Z,100280.09
2022-12-31T06:11:05.735Z,100278.41
2022-12-31T06:13:32.763Z,100282.69
2022-12-31T06:16:06.308Z,100271.53
2022-12-31T06:18:32.925Z,100272.38
2022-12-31T06:20:59.968Z,100276.69
2022-12-31T06:23:27.102Z,100272.38
2022-12-31T06:25:54.113Z,100267.22
2022-12-31T06:28:20.870Z,100276.69
2022-12-31T06:30:47.979Z,100282.69
2022-12-31T06:33:14.539Z,100281.81
2022-12-31T06:35:42.074Z,100286.13
2022-12-31T06:38:08.702Z,100293.84
2022-12-31T06:40:37.582Z,100295.56
2022-12-31T06:43:04.099Z,100293.88
2022-12-31T06:45:30.689Z,100275.81
2022-12-31T06:47:57.186Z,100292.13
2022-12-31T06:50:23.723Z,100286.97
2022-12-31T06:52:50.276Z,100289.53
2022-12-31T06:55:17.243Z,100288.66
2022-12-31T06:57:44.883Z,100286.97
2022-12-31T07:00:12.170Z,100286.94
2022-12-31T07:03:11.631Z,100286.06
2022-12-31T07:05:49.661Z,100285.19
2022-12-31T07:08:51.578Z,100280.91
2022-12-31T07:11:23.215Z,100278.28
2022-12-31T07:14:01.291Z,100280.00
2022-12-31T07:16:50.384Z,100285.13
2022-12-31T07:19:19.871Z,100277.41
2022-12-31T07:21:49.638Z,100275.69
2022-12-31T07:24:17.941Z,100278.22
2022-12-31T07:27:05.965Z,100267.06
2022-12-31T07:29:32.975Z,100280.78
2022-12-31T07:32:21.692Z,100280.78
2022-12-31T07:35:16.745Z,100277.31
2022-12-31T07:37:52.478Z,100283.31
2022-12-31T07:40:30.202Z,100282.44
2022-12-31T07:43:13.923Z,100291.03
2022-12-31T07:45:40.892Z,100296.16
2022-12-31T07:48:22.907Z,100290.13
2022-12-31T07:50:49.811Z,100285.81
2022-12-31T07:53:16.762Z,100284.91
2022-12-31T07:55:43.870Z,100304.72
2022-12-31T07:58:25.649Z,100302.06
2022-12-31T08:00:55.684Z,100304.66
2022-12-31T08:03:24.985Z,100313.22
2022-12-31T08:06:09.951Z,100306.34
2022-12-31T08:08:53.908Z,100314.06
2022-12-31T08:11:38.040Z,100318.34
2022-12-31T08:14:10.582Z,100320.88
2022-12-31T08:16:37.528Z,100321.75
2022-12-31T08:19:05.202Z,100322.59
2022-12-31T08:21:52.598Z,100332.97
2022-12-31T08:24:36.020Z,100320.81
2022-12-31T08:27:12.320Z,100342.38
2022-12-31T08:29:48.260Z,100340.66
2022-12-31T08:32:46.979Z,100336.34
2022-12-31T08:35:28.226Z,100344.09
2022-12-31T08:38:26.009Z,100334.63
2022-12-31T08:41:10.856Z,100334.63
2022-12-31T08:44:09.500Z,100342.31
2022-12-31T08:47:17.997Z,100334.63
2022-12-31T08:49:44.777Z,100343.25
2022-12-31T08:52:20.073Z,100344.09
2022-12-31T08:54:46.815Z,100350.16
2022-12-31T08:57:26.886Z,100345.88
2022-12-31T08:59:58.953Z,100348.41
2022-12-31T09:02:34.585Z,100354.50
2022-12-31T09:05:25.155Z,100352.72
2022-12-31T09:08:13.576Z,100369.13
2022-12-31T09:10:40.028Z,100372.59
2022-12-31T09:13:31.296Z,100359.69
2022-12-31T09:16:19.633Z,100358.81
2022-12-31T09:18:46.271Z,100381.19
2022-12-31T09:21:14.776Z,100377.75
2022-12-31T09:23:42.005Z,100385.50
2022-12-31T09:26:40.423Z,100394.06
2022-12-31T09:29:14.709Z,100388.00
2022-12-31T09:31:58.700Z,100391.41
2022-12-31T09:34:35.858Z,100395.72
2022-12-31T09:37:17.877Z,100396.53
2022-12-31T09:39:47.519Z,100399.94
2022-12-31T09:42:38.994Z,100411.09
2022-12-31T09:45:36.811Z,100406.75
2022-12-31T09:48:03.839Z,100402.38
2022-12-31T09:50:49.433Z,100414.47
2022-12-31T09:53:39.586Z,100420.47
2022-12-31T09:56:35.379Z,100418.66
2022-12-31T09:59:14.588Z,100416.97
2022-12-31T10:01:50.351Z,100422.16
2022-12-31T10:04:33.481Z,100426.41
2022-12-31T10:07:12.606Z,100429.88
2022-12-31T10:10:02.929Z,100432.44
2022-12-31T10:12:40.594Z,100423.84
2022-12-31T10:15:29.191Z,100427.22
2022-12-31T10:17:59.520Z,100440.16
2022-12-31T10:20:47.568Z,100438.44
2022-12-31T10:23:53.219Z,100440.16
2022-12-31T10:26:28.933Z,100455.69
2022-12-31T10:29:09.472Z,100440.22
2022-12-31T10:32:13.636Z,100435.00
2022-12-31T10:35:08.229Z,100446.25
2022-12-31T10:37:54.314Z,100440.22
2022-12-31T10:40:53.337Z,100455.69
2022-12-31T10:43:54.038Z,100447.03
2022-12-31T10:46:39.102Z,100447.00
2022-12-31T10:49:26.056Z,100443.53
2022-12-31T10:51:59.249Z,100438.38
2022-12-31T10:54:47.667Z,100441.81
2022-12-31T10:57:49.347Z,100452.09
2022-12-31T11:00:23.729Z,100451.16
2022-12-31T11:02:53.221Z,100445.94
2022-12-31T11:05:25.711Z,100445.06
2022-12-31T11:08:14.047Z,100456.22
2022-12-31T11:11:05.575Z,100444.06
2022-12-31T11:13:42.951Z,100470.00
2022-12-31T11:16:42.105Z,100466.47
2022-12-31T11:19:23.593Z,100476.88
2022-12-31T11:22:13.482Z,100470.78
2022-12-31T11:25:12.571Z,100466.47
2022-12-31T11:27:49.543Z,100466.53
2022-12-31T11:30:19.439Z,100465.66
2022-12-31T11:32:57.876Z,100484.66
2022-12-31T11:35:32.204Z,100474.28
2022-12-31T11:38:22.707Z,100467.41
2022-12-31T11:40:59.963Z,100467.41
2022-12-31T11:43:35.531Z,100460.50
2022-12-31T11:46:20.474Z,100463.88
2022-12-31T11:48:58.964Z,100460.53
2022-12-31T11:52:00.649Z,100447.59
2022-12-31T11:54:37.605Z,100451.91
2022-12-31T11:57:28.359Z,100452.81
2022-12-31T11:59:59.386Z,100452.84
2022-12-31T12:02:37.487Z,100458.91
2022-12-31T12:05:11.044Z,100447.69
2022-12-31T12:07:38.172Z,100449.38
2022-12-31T12:10:36.836Z,100458.03
2022-12-31T12:13:26.047Z,100436.53
2022-12-31T12:15:58.781Z,100442.56
2022-12-31T12:18:34.014Z,100445.13
2022-12-31T12:21:07.317Z,100434.88
2022-12-31T12:23:33.942Z,100424.47
2022-12-31T12:26:01.042Z,100425.38
2022-12-31T12:28:30.501Z,100432.28
2022-12-31T12:31:03.363Z,100422.81
2022-12-31T12:33:42.098Z,100418.47
2022-12-31T12:36:11.841Z,100422.81
2022-12-31T12:38:39.042Z,100411.59
2022-12-31T12:41:10.303Z,100406.38
2022-12-31T12:43:38.187Z,100404.69
2022-12-31T12:46:08.235Z,100397.78
2022-12-31T12:48:39.086Z,100388.31
2022-12-31T12:51:47.295Z,100398.63
2022-12-31T12:54:34.291Z,100401.16
2022-12-31T12:57:16.144Z,100412.31
2022-12-31T13:00:15.616Z,100426.94
2022-12-31T13:03:09.885Z,100456.16
2022-12-31T13:06:14.127Z,100473.38
2022-12-31T13:08:55.947Z,100471.66
2022-12-31T13:11:33.871Z,100458.69
2022-12-31T13:14:03.133Z,100458.69
2022-12-31T13:16:41.831Z,100453.56
2022-12-31T13:19:26.859Z,100455.19
2022-12-31T13:21:57.998Z,100456.13
2022-12-31T13:24:37.023Z,100459.59
2022-12-31T13:27:23.889Z,100449.28
2022-12-31T13:29:52.374Z,100451.91
2022-12-31T13:32:28.693Z,100442.41
2022-12-31T13:35:02.677Z,100463.94
2022-12-31T13:37:39.607Z,100446.75
2022-12-31T13:40:26.799Z,100444.13
2022-12-31T13:43:00.113Z,100450.94
2022-12-31T13:45:36.116Z,100457.06
2022-12-31T13:48:13.258Z,100455.31
2022-12-31T13:50:49.652Z,100457.06
2022-12-31T13:53:32.742Z,100455.31
2022-12-31T13:56:05.011Z,100451.03
2022-12-31T13:58:35.663Z,100468.25
2022-12-31T14:01:11.597Z,100458.75
2022-12-31T14:03:40.438Z,100445.81
2022-12-31T14:06:19.226Z,100466.47
2022-12-31T14:08:46.089Z,100458.69
2022-12-31T14:11:21.639Z,100472.53
2022-12-31T14:14:12.499Z,100466.50
2022-12-31T14:16:59.804Z,100455.41
2022-12-31T14:20:03.716Z,100466.53
2022-12-31T14:22:39.042Z,100466.47
2022-12-31T14:25:18.656Z,100478.59
2022-12-31T14:27:47.851Z,100484.66
2022-12-31T14:30:23.241Z,100470.88
2022-12-31T14:33:07.185Z,100501.06
2022-12-31T14:35:47.327Z,100501.94
2022-12-31T14:38:39.330Z,100507.16
2022-12-31T14:41:15.877Z,100501.09
2022-12-31T14:44:10.392Z,100501.94
2022-12-31T14:46:49.046Z,100495.09
2022-12-31T14:49:39.200Z,100501.16
2022-12-31T14:52:32.285Z,100506.34
2022-12-31T14:55:03.381Z,100515.81
2022-12-31T14:58:16.794Z,100535.69
2022-12-31T15:00:40.114Z,100516.72
2022-12-31T15:03:24.354Z,100526.25
2022-12-31T15:06:28.317Z,100523.66
2022-12-31T15:09:13.587Z,100532.28
2022-12-31T15:11:42.989Z,100532.28
2022-12-31T15:14:37.410Z,100542.66
2022-12-31T15:17:14.621Z,100540.06
2022-12-31T15:20:02.164Z,100539.22
2022-12-31T15:22:43.986Z,100501.28
2022-12-31T15:25:38.656Z,100514.25
2022-12-31T15:28:27.041Z,100520.28
2022-12-31T15:30:56.644Z,100502.22
2022-12-31T15:33:33.037Z,100497.91
2022-12-31T15:36:16.519Z,100495.31
2022-12-31T15:38:43.415Z,100493.63
2022-12-31T15:41:16.859Z,100487.63
2022-12-31T15:44:13.807Z,100503.09
2022-12-31T15:46:42.684Z,100485.03
2022-12-31T15:49:18.307Z,100494.50
2022-12-31T15:51:50.427Z,100496.22
2022-12-31T15:54:42.043Z,100498.00
2022-12-31T15:57:17.934Z,100502.25
2022-12-31T15:59:45.338Z,100499.69
2022-12-31T16:02:21.954Z,100506.56
2022-12-31T16:04:49.943Z,100504.88
2022-12-31T16:07:17.832Z,100511.81
2022-12-31T16:09:51.827Z,100509.19
2022-12-31T16:12:27.781Z,100501.44
2022-12-31T16:14:59.547Z,100491.13
2022-12-31T16:17:31.472Z,100485.94
2022-12-31T16:20:00.127Z,100485.09
2022-12-31T16:22:37.275Z,100483.34
2022-12-31T16:25:34.337Z,100469.59
2022-12-31T16:27:54.169Z,100471.38
2022-12-31T16:30:22.481Z,100470.53
2022-12-31T16:32:51.355Z,100471.41
2022-12-31T16:35:27.982Z,100459.31
2022-12-31T16:38:17.427Z,100455.88
2022-12-31T16:40:59.391Z,100453.31
2022-12-31T16:43:27.316Z,100459.31
2022-12-31T16:45:58.075Z,100454.09
2022-12-31T16:48:25.123Z,100458.41
2022-12-31T16:50:55.833Z,100461.00
2022-12-31T16:53:26.592Z,100441.97
2022-12-31T16:56:00.014Z,100445.41
2022-12-31T16:58:37.253Z,100435.88
2022-12-31T17:01:16.912Z,100438.47
2022-12-31T17:03:58.255Z,100430.75
2022-12-31T17:06:27.143Z,100435.94
2022-12-31T17:08:54.839Z,100453.13
2022-12-31T17:11:30.494Z,100458.28
2022-12-31T17:14:06.197Z,100454.81
2022-12-31T17:16:35.988Z,100423.84
2022-12-31T17:19:03.391Z,100403.94
2022-12-31T17:21:32.204Z,100416.84
2022-12-31T17:24:06.157Z,100417.72
2022-12-31T17:26:35.912Z,100423.75
2022-12-31T17:29:05.910Z,100417.78
2022-12-31T17:31:34.744Z,100429.84
2022-12-31T17:34:21.774Z,100429.00
2022-12-31T17:37:14.475Z,100417.78
2022-12-31T17:39:48.464Z,100411.75
2022-12-31T17:42:24.793Z,100418.66
2022-12-31T17:44:56.033Z,100413.44
2022-12-31T17:47:22.767Z,100410.91
2022-12-31T17:49:49.475Z,100418.66
2022-12-31T17:52:16.457Z,100439.31
2022-12-31T17:54:43.050Z,100435.00
2022-12-31T17:57:23.694Z,100439.28
2022-12-31T17:59:50.778Z,100438.50
2022-12-31T18:02:17.500Z,100437.69
2022-12-31T18:04:44.666Z,100439.34
2022-12-31T18:07:11.254Z,100447.13
2022-12-31T18:09:38.295Z,100436.78
2022-12-31T18:12:06.967Z,100429.84
2022-12-31T18:14:34.009Z,100428.88
2022-12-31T18:17:00.901Z,100431.41
2022-12-31T18:20:02.962Z,100439.28
2022-12-31T18:22:16.339Z,100442.78
2022-12-31T18:24:43.700Z,100432.38
2022-12-31T18:27:16.638Z,100447.06
2022-12-31T18:29:43.695Z,100434.03
2022-12-31T18:32:25.281Z,100439.16
2022-12-31T18:34:52.031Z,100439.19
2022-12-31T18:37:22.259Z,100439.06
2022-12-31T18:39:49.781Z,100433.22
2022-12-31T18:42:18.299Z,100442.63
2022-12-31T18:44:46.438Z,100439.16
2022-12-31T18:47:15.287Z,100459.00
2022-12-31T18:49:42.153Z,100456.28
2022-12-31T18:52:14.909Z,100450.22
2022-12-31T18:54:42.355Z,100445.94
2022-12-31T18:57:13.769Z,100446.88
2022-12-31T18:59:41.275Z,100451.19
2022-12-31T19:02:21.098Z,100449.41
2022-12-31T19:04:48.148Z,100458.06
2022-12-31T19:07:14.718Z,100451.16
2022-12-31T19:09:46.327Z,100447.72
2022-12-31T19:12:14.847Z,100444.28
2022-12-31T19:14:41.481Z,100440.84
2022-12-31T19:19:34.663Z,100460.56
2022-12-31T19:22:01.543Z,100463.06
2022-12-31T19:24:28.580Z,100459.72
2022-12-31T19:26:55.555Z,100451.03
2022-12-31T19:29:24.554Z,100451.16
2022-12-31T19:31:51.793Z,100459.72
2022-12-31T19:34:18.383Z,100449.38
2022-12-31T19:36:45.578Z,100442.38
2022-12-31T19:39:16.254Z,100440.69
2022-12-31T19:41:43.743Z,100448.34
2022-12-31T19:44:18.213Z,100439.00
2022-12-31T19:46:46.160Z,100457.09
2022-12-31T19:49:14.534Z,100462.31
2022-12-31T19:51:41.727Z,100456.34
2022-12-31T19:54:09.453Z,100464.94
2022-12-31T19:56:36.496Z,100450.22
2022-12-31T19:59:07.649Z,100465.75
2022-12-31T20:01:34.919Z,100476.91
2022-12-31T20:04:02.433Z,100464.91
2022-12-31T20:06:29.523Z,100483.06
2022-12-31T20:08:56.163Z,100469.28
2022-12-31T20:11:24.442Z,100479.53
2022-12-31T20:13:53.590Z,100483.94
2022-12-31T20:16:23.460Z,100484.78
2022-12-31T20:18:50.621Z,100486.59
2022-12-31T20:21:20.399Z,100496.75
2022-12-31T20:23:48.556Z,100494.31
2022-12-31T20:26:15.618Z,100494.25
2022-12-31T20:28:42.167Z,100500.28
2022-12-31T20:31:14.473Z,100507.19
2022-12-31T20:33:42.088Z,100497.69
2022-12-31T20:36:11.229Z,100502.88
2022-12-31T20:38:38.478Z,100497.72
2022-12-31T20:41:08.044Z,100496.84
2022-12-31T20:43:36.034Z,100485.72
2022-12-31T20:46:15.346Z,100483.13
2022-12-31T20:48:43.568Z,100493.47
2022-12-31T20:51:10.603Z,100486.56
2022-12-31T20:53:37.681Z,100509.88
2022-12-31T20:56:09.411Z,100509.91
2022-12-31T20:58:36.788Z,100502.16
2022-12-31T21:01:07.833Z,100515.91
2022-12-31T21:06:28.117Z,100511.56
2022-12-31T21:09:01.604Z,100504.72
2022-12-31T21:11:47.402Z,100509.91
2022-12-31T21:14:14.386Z,100523.72
2022-12-31T21:16:40.967Z,100511.69
2022-12-31T21:19:07.742Z,100519.44
2022-12-31T21:21:34.311Z,100528.94
2022-12-31T21:24:00.907Z,100533.25
2022-12-31T21:26:28.456Z,100519.41
2022-12-31T21:28:55.479Z,100521.97
2022-12-31T21:31:22.654Z,100518.59
2022-12-31T21:33:49.268Z,100536.59
2022-12-31T21:36:17.064Z,100544.44
2022-12-31T21:38:44.131Z,100546.94
2022-12-31T21:41:33.549Z,100553.81
2022-12-31T21:44:01.753Z,100560.69
2022-12-31T21:46:28.995Z,100563.28
2022-12-31T21:49:00.258Z,100557.31
2022-12-31T21:51:27.871Z,100553.72
2022-12-31T21:53:54.494Z,100546.81
2022-12-31T21:56:22.608Z,100556.34
2022-12-31T21:59:13.398Z,100546.00
2022-12-31T22:01:59.217Z,100547.69
2022-12-31T22:05:00.901Z,100540.88
2022-12-31T22:07:13.253Z,100554.59
2022-12-31T22:09:39.875Z,100554.66
2022-12-31T22:12:07.112Z,100558.06
2022-12-31T22:14:33.652Z,100557.16
2022-12-31T22:17:00.304Z,100562.41
2022-12-31T22:19:26.853Z,100563.22
2022-12-31T22:21:53.860Z,100565.00
2022-12-31T22:24:20.859Z,100562.44
2022-12-31T22:26:47.419Z,100558.16
2022-12-31T22:29:14.615Z,100567.69
2022-12-31T22:31:41.661Z,100578.00
2022-12-31T22:34:09.030Z,100565.97
2022-12-31T22:36:35.643Z,100563.38
2022-12-31T22:39:02.689Z,100564.22
2022-12-31T22:41:29.270Z,100562.50
2022-12-31T22:44:03.208Z,100565.13
2022-12-31T22:46:30.914Z,100563.41
2022-12-31T22:48:59.559Z,100568.56
2022-12-31T22:51:55.794Z,100564.25
2022-12-31T22:54:14.976Z,100570.16
2022-12-31T22:56:41.831Z,100552.03
2022-12-31T22:59:09.186Z,100562.34
2022-12-31T23:01:36.649Z,100555.47
2022-12-31T23:04:03.880Z,100568.31
2022-12-31T23:06:30.902Z,100582.97
2022-12-31T23:09:16.037Z,100583.78
2022-12-31T23:11:45.670Z,100582.88
2022-12-31T23:14:35.812Z,100593.34
2022-12-31T23:17:30.485Z,100598.63
2022-12-31T23:20:18.948Z,100610.78
2022-12-31T23:23:05.394Z,100606.44
2022-12-31T23:25:33.458Z,100614.25
2022-12-31T23:28:00.516Z,100614.28
2022-12-31T23:30:27.587Z,100620.31
2022-12-31T23:32:54.665Z,100619.44
2022-12-31T23:35:21.746Z,100624.63
2022-12-31T23:37:48.803Z,100637.53
2022-12-31T23:40:21.242Z,100659.97
2022-12-31T23:42:49.698Z,100640.16
2022-12-31T23:45:16.919Z,100649.63
2022-12-31T23:47:43.975Z,100636.69
2022-12-31T23:50:10.592Z,100640.19
2022-12-31T23:52:37.623Z,100637.59
2022-12-31T23:55:04.516Z,100625.59
2022-12-31T23:57:31.111Z,100634.16
2022-12-31T23:59:58.290Z,100644.47
